sensor_id;sensor_type;location;lat;lon;timestamp;temperature;humidity
36670;DHT22;22662;47.412;9.742;2022-09-09T00:03:31;17.10;99.90
36670;DHT22;22662;47.412;9.742;2022-09-09T00:06:16;17.10;99.90
36670;DHT22;22662;47.412;9.742;2022-09-09T00:09:04;17.10;99.90
36670;DHT22;22662;47.412;9.742;2022-09-09T00:16:43;17.20;99.90
36670;DHT22;22662;47.412;9.742;2022-09-09T00:19:16;17.20;99.90
36670;DHT22;22662;47.412;9.742;2022-09-09T00:21:56;17.20;99.90
36670;DHT22;22662;47.412;9.742;2022-09-09T00:24:29;17.20;99.90
36670;DHT22;22662;47.412;9.742;2022-09-09T00:27:01;17.20;99.90
36670;DHT22;22662;47.412;9.742;2022-09-09T00:29:33;17.20;99.90
36670;DHT22;22662;47.412;9.742;2022-09-09T00:32:07;17.00;99.90
36670;DHT22;22662;47.412;9.742;2022-09-09T00:34:34;16.90;99.90
36670;DHT22;22662;47.412;9.742;2022-09-09T00:37:01;16.80;99.90
36670;DHT22;22662;47.412;9.742;2022-09-09T00:39:46;16.80;99.90
36670;DHT22;22662;47.412;9.742;2022-09-09T00:42:15;16.80;99.90
36670;DHT22;22662;47.412;9.742;2022-09-09T00:50:00;17.10;99.90
36670;DHT22;22662;47.412;9.742;2022-09-09T00:55:04;17.10;99.90
36670;DHT22;22662;47.412;9.742;2022-09-09T00:57:32;17.10;99.90
36670;DHT22;22662;47.412;9.742;2022-09-09T00:59:59;17.10;99.90
36670;DHT22;22662;47.412;9.742;2022-09-09T01:02:36;17.00;99.90
36670;DHT22;22662;47.412;9.742;2022-09-09T01:05:16;16.80;99.90
36670;DHT22;22662;47.412;9.742;2022-09-09T01:07:44;16.80;99.90
36670;DHT22;22662;47.412;9.742;2022-09-09T01:10:15;16.80;99.90
36670;DHT22;22662;47.412;9.742;2022-09-09T01:12:43;16.80;99.90
36670;DHT22;22662;47.412;9.742;2022-09-09T01:15:14;16.70;99.90
36670;DHT22;22662;47.412;9.742;2022-09-09T01:27:53;16.40;99.90
36670;DHT22;22662;47.412;9.742;2022-09-09T01:30:19;16.30;99.90
36670;DHT22;22662;47.412;9.742;2022-09-09T01:32:47;16.30;99.90
36670;DHT22;22662;47.412;9.742;2022-09-09T01:35:26;16.30;99.90
36670;DHT22;22662;47.412;9.742;2022-09-09T01:37:53;16.30;99.90
36670;DHT22;22662;47.412;9.742;2022-09-09T01:40:19;16.30;99.90
36670;DHT22;22662;47.412;9.742;2022-09-09T01:42:45;16.30;99.90
36670;DHT22;22662;47.412;9.742;2022-09-09T01:45:10;16.30;99.90
36670;DHT22;22662;47.412;9.742;2022-09-09T01:47:36;16.50;99.90
36670;DHT22;22662;47.412;9.742;2022-09-09T01:50:02;16.50;99.90
36670;DHT22;22662;47.412;9.742;2022-09-09T01:52:28;16.60;99.90
36670;DHT22;22662;47.412;9.742;2022-09-09T01:54:54;16.70;99.90
36670;DHT22;22662;47.412;9.742;2022-09-09T01:57:24;16.70;99.90
36670;DHT22;22662;47.412;9.742;2022-09-09T02:02:24;16.60;99.90
36670;DHT22;22662;47.412;9.742;2022-09-09T02:04:56;16.70;99.90
36670;DHT22;22662;47.412;9.742;2022-09-09T02:07:40;16.70;99.90
36670;DHT22;22662;47.412;9.742;2022-09-09T02:10:16;16.50;99.90
36670;DHT22;22662;47.412;9.742;2022-09-09T02:12:45;16.50;99.90
36670;DHT22;22662;47.412;9.742;2022-09-09T02:15:15;16.60;99.90
36670;DHT22;22662;47.412;9.742;2022-09-09T02:17:43;16.60;99.90
36670;DHT22;22662;47.412;9.742;2022-09-09T02:20:12;16.60;99.90
36670;DHT22;22662;47.412;9.742;2022-09-09T02:22:38;16.60;99.90
36670;DHT22;22662;47.412;9.742;2022-09-09T02:25:05;16.60;99.90
36670;DHT22;22662;47.412;9.742;2022-09-09T02:27:33;16.60;99.90
36670;DHT22;22662;47.412;9.742;2022-09-09T02:29:59;16.60;99.90
36670;DHT22;22662;47.412;9.742;2022-09-09T02:32:27;16.50;99.90
36670;DHT22;22662;47.412;9.742;2022-09-09T02:34:57;16.50;99.90
36670;DHT22;22662;47.412;9.742;2022-09-09T02:37:25;16.60;99.90
36670;DHT22;22662;47.412;9.742;2022-09-09T02:39:54;16.60;99.90
36670;DHT22;22662;47.412;9.742;2022-09-09T02:42:20;16.70;99.90
36670;DHT22;22662;47.412;9.742;2022-09-09T02:44:45;16.70;99.90
36670;DHT22;22662;47.412;9.742;2022-09-09T02:49:43;16.70;99.90
36670;DHT22;22662;47.412;9.742;2022-09-09T02:52:14;16.60;99.90
36670;DHT22;22662;47.412;9.742;2022-09-09T02:54:41;16.60;99.90
36670;DHT22;22662;47.412;9.742;2022-09-09T02:59:37;16.50;99.90
36670;DHT22;22662;47.412;9.742;2022-09-09T03:02:03;16.40;99.90
36670;DHT22;22662;47.412;9.742;2022-09-09T03:04:29;16.40;99.90
36670;DHT22;22662;47.412;9.742;2022-09-09T03:06:56;16.30;99.90
36670;DHT22;22662;47.412;9.742;2022-09-09T03:09:22;16.40;99.90
36670;DHT22;22662;47.412;9.742;2022-09-09T03:11:48;16.40;99.90
36670;DHT22;22662;47.412;9.742;2022-09-09T03:14:15;16.30;99.90
36670;DHT22;22662;47.412;9.742;2022-09-09T03:16:40;16.30;99.90
36670;DHT22;22662;47.412;9.742;2022-09-09T03:19:08;16.30;99.90
36670;DHT22;22662;47.412;9.742;2022-09-09T03:21:34;16.20;99.90
36670;DHT22;22662;47.412;9.742;2022-09-09T03:23:59;16.20;99.90
36670;DHT22;22662;47.412;9.742;2022-09-09T03:26:25;16.30;99.90
36670;DHT22;22662;47.412;9.742;2022-09-09T03:28:51;16.40;99.90
36670;DHT22;22662;47.412;9.742;2022-09-09T03:31:17;16.40;99.90
36670;DHT22;22662;47.412;9.742;2022-09-09T03:33:43;16.50;99.90
36670;DHT22;22662;47.412;9.742;2022-09-09T03:36:09;16.60;99.90
36670;DHT22;22662;47.412;9.742;2022-09-09T03:38:34;16.60;99.90
36670;DHT22;22662;47.412;9.742;2022-09-09T03:41:00;16.60;99.90
36670;DHT22;22662;47.412;9.742;2022-09-09T03:43:26;16.60;99.90
36670;DHT22;22662;47.412;9.742;2022-09-09T03:45:52;16.70;99.90
36670;DHT22;22662;47.412;9.742;2022-09-09T03:48:18;16.80;99.90
36670;DHT22;22662;47.412;9.742;2022-09-09T03:50:48;16.70;99.90
36670;DHT22;22662;47.412;9.742;2022-09-09T03:53:14;16.60;99.90
36670;DHT22;22662;47.412;9.742;2022-09-09T03:55:43;16.60;99.90
36670;DHT22;22662;47.412;9.742;2022-09-09T03:58:09;16.50;99.90
36670;DHT22;22662;47.412;9.742;2022-09-09T04:00:36;16.30;99.90
36670;DHT22;22662;47.412;9.742;2022-09-09T04:03:01;16.30;99.90
36670;DHT22;22662;47.412;9.742;2022-09-09T04:05:27;16.20;99.90
36670;DHT22;22662;47.412;9.742;2022-09-09T04:07:53;16.30;99.90
36670;DHT22;22662;47.412;9.742;2022-09-09T04:10:19;16.30;99.90
36670;DHT22;22662;47.412;9.742;2022-09-09T04:12:46;16.30;99.90
36670;DHT22;22662;47.412;9.742;2022-09-09T04:15:12;16.30;99.90
36670;DHT22;22662;47.412;9.742;2022-09-09T04:17:38;16.30;99.90
36670;DHT22;22662;47.412;9.742;2022-09-09T04:20:04;16.40;99.90
36670;DHT22;22662;47.412;9.742;2022-09-09T04:22:30;16.40;99.90
36670;DHT22;22662;47.412;9.742;2022-09-09T04:24:56;16.40;99.90
36670;DHT22;22662;47.412;9.742;2022-09-09T04:27:21;16.40;99.90
36670;DHT22;22662;47.412;9.742;2022-09-09T04:29:47;16.40;99.90
36670;DHT22;22662;47.412;9.742;2022-09-09T04:32:12;16.50;99.90
36670;DHT22;22662;47.412;9.742;2022-09-09T04:34:38;16.60;99.90
36670;DHT22;22662;47.412;9.742;2022-09-09T04:37:04;16.70;99.90
36670;DHT22;22662;47.412;9.742;2022-09-09T04:39:30;16.80;99.90
36670;DHT22;22662;47.412;9.742;2022-09-09T04:41:56;16.90;99.90
36670;DHT22;22662;47.412;9.742;2022-09-09T04:44:21;17.00;99.90
36670;DHT22;22662;47.412;9.742;2022-09-09T04:46:47;17.00;99.90
36670;DHT22;22662;47.412;9.742;2022-09-09T04:49:13;17.10;99.90
36670;DHT22;22662;47.412;9.742;2022-09-09T04:51:38;17.00;99.90
36670;DHT22;22662;47.412;9.742;2022-09-09T04:54:04;17.10;99.90
36670;DHT22;22662;47.412;9.742;2022-09-09T04:56:31;17.10;99.90
36670;DHT22;22662;47.412;9.742;2022-09-09T04:58:56;17.10;99.90
36670;DHT22;22662;47.412;9.742;2022-09-09T05:01:22;17.10;99.90
36670;DHT22;22662;47.412;9.742;2022-09-09T05:03:49;17.10;99.90
36670;DHT22;22662;47.412;9.742;2022-09-09T05:06:18;17.10;99.90
36670;DHT22;22662;47.412;9.742;2022-09-09T05:08:44;17.10;99.90
36670;DHT22;22662;47.412;9.742;2022-09-09T05:11:17;17.00;99.90
36670;DHT22;22662;47.412;9.742;2022-09-09T05:13:43;17.00;99.90
36670;DHT22;22662;47.412;9.742;2022-09-09T05:16:09;17.00;99.90
36670;DHT22;22662;47.412;9.742;2022-09-09T05:18:39;17.00;99.90
36670;DHT22;22662;47.412;9.742;2022-09-09T05:21:06;17.00;99.90
36670;DHT22;22662;47.412;9.742;2022-09-09T05:23:32;17.00;99.90
36670;DHT22;22662;47.412;9.742;2022-09-09T05:25:59;17.10;99.90
36670;DHT22;22662;47.412;9.742;2022-09-09T05:28:25;17.10;99.90
36670;DHT22;22662;47.412;9.742;2022-09-09T05:30:58;17.10;99.90
36670;DHT22;22662;47.412;9.742;2022-09-09T05:33:24;17.10;99.90
36670;DHT22;22662;47.412;9.742;2022-09-09T05:35:57;17.10;99.90
36670;DHT22;22662;47.412;9.742;2022-09-09T05:38:23;17.10;99.90
36670;DHT22;22662;47.412;9.742;2022-09-09T05:40:52;17.10;99.90
36670;DHT22;22662;47.412;9.742;2022-09-09T05:43:18;17.10;99.90
36670;DHT22;22662;47.412;9.742;2022-09-09T05:45:45;17.10;99.90
36670;DHT22;22662;47.412;9.742;2022-09-09T05:48:15;17.10;99.90
36670;DHT22;22662;47.412;9.742;2022-09-09T05:50:41;17.10;99.90
36670;DHT22;22662;47.412;9.742;2022-09-09T05:53:08;17.20;99.90
36670;DHT22;22662;47.412;9.742;2022-09-09T05:55:34;17.20;99.90
36670;DHT22;22662;47.412;9.742;2022-09-09T05:57:59;17.20;99.90
36670;DHT22;22662;47.412;9.742;2022-09-09T06:00:26;17.20;99.90
36670;DHT22;22662;47.412;9.742;2022-09-09T06:02:52;17.30;99.90
36670;DHT22;22662;47.412;9.742;2022-09-09T06:05:19;17.30;99.90
36670;DHT22;22662;47.412;9.742;2022-09-09T06:07:44;17.30;99.90
36670;DHT22;22662;47.412;9.742;2022-09-09T06:10:11;17.30;99.90
36670;DHT22;22662;47.412;9.742;2022-09-09T06:12:39;17.30;99.90
36670;DHT22;22662;47.412;9.742;2022-09-09T06:15:04;17.30;99.90
36670;DHT22;22662;47.412;9.742;2022-09-09T06:17:30;17.30;99.90
36670;DHT22;22662;47.412;9.742;2022-09-09T06:19:56;17.50;99.90
36670;DHT22;22662;47.412;9.742;2022-09-09T06:22:22;17.50;99.90
36670;DHT22;22662;47.412;9.742;2022-09-09T06:24:48;17.60;99.90
36670;DHT22;22662;47.412;9.742;2022-09-09T06:27:13;17.70;99.90
36670;DHT22;22662;47.412;9.742;2022-09-09T06:29:39;17.70;99.90
36670;DHT22;22662;47.412;9.742;2022-09-09T06:32:05;17.70;99.90
36670;DHT22;22662;47.412;9.742;2022-09-09T06:34:30;17.80;99.90
36670;DHT22;22662;47.412;9.742;2022-09-09T06:36:56;17.70;99.90
36670;DHT22;22662;47.412;9.742;2022-09-09T06:39:23;17.70;99.90
36670;DHT22;22662;47.412;9.742;2022-09-09T06:41:49;17.80;99.90
36670;DHT22;22662;47.412;9.742;2022-09-09T06:44:15;17.80;99.90
36670;DHT22;22662;47.412;9.742;2022-09-09T06:46:40;17.80;99.90
36670;DHT22;22662;47.412;9.742;2022-09-09T06:49:09;17.80;99.90
36670;DHT22;22662;47.412;9.742;2022-09-09T06:51:36;17.90;99.90
36670;DHT22;22662;47.412;9.742;2022-09-09T06:54:03;17.80;99.90
36670;DHT22;22662;47.412;9.742;2022-09-09T06:56:30;17.80;99.90
36670;DHT22;22662;47.412;9.742;2022-09-09T06:58:56;17.80;99.90
36670;DHT22;22662;47.412;9.742;2022-09-09T07:01:27;17.70;99.90
36670;DHT22;22662;47.412;9.742;2022-09-09T07:03:54;17.60;99.90
36670;DHT22;22662;47.412;9.742;2022-09-09T07:06:22;17.40;99.90
36670;DHT22;22662;47.412;9.742;2022-09-09T07:08:49;17.40;99.90
36670;DHT22;22662;47.412;9.742;2022-09-09T07:11:15;17.50;99.90
36670;DHT22;22662;47.412;9.742;2022-09-09T07:13:41;17.40;99.90
36670;DHT22;22662;47.412;9.742;2022-09-09T07:16:08;17.40;99.90
36670;DHT22;22662;47.412;9.742;2022-09-09T07:18:34;17.40;99.90
36670;DHT22;22662;47.412;9.742;2022-09-09T07:21:00;17.40;99.90
36670;DHT22;22662;47.412;9.742;2022-09-09T07:23:27;17.40;99.90
36670;DHT22;22662;47.412;9.742;2022-09-09T07:25:53;17.40;99.90
36670;DHT22;22662;47.412;9.742;2022-09-09T07:28:19;17.40;99.90
36670;DHT22;22662;47.412;9.742;2022-09-09T07:33:20;17.50;99.90
36670;DHT22;22662;47.412;9.742;2022-09-09T07:35:45;17.50;99.90
36670;DHT22;22662;47.412;9.742;2022-09-09T07:38:11;17.50;99.90
36670;DHT22;22662;47.412;9.742;2022-09-09T07:40:37;17.50;99.90
36670;DHT22;22662;47.412;9.742;2022-09-09T07:43:03;17.40;99.90
36670;DHT22;22662;47.412;9.742;2022-09-09T07:45:28;17.40;99.90
36670;DHT22;22662;47.412;9.742;2022-09-09T07:47:54;17.20;99.90
36670;DHT22;22662;47.412;9.742;2022-09-09T07:50:22;17.20;99.90
36670;DHT22;22662;47.412;9.742;2022-09-09T07:52:49;17.20;99.90
36670;DHT22;22662;47.412;9.742;2022-09-09T07:55:15;17.30;99.90
36670;DHT22;22662;47.412;9.742;2022-09-09T07:57:40;17.30;99.90
36670;DHT22;22662;47.412;9.742;2022-09-09T08:00:08;17.30;99.90
36670;DHT22;22662;47.412;9.742;2022-09-09T08:02:35;17.30;99.90
36670;DHT22;22662;47.412;9.742;2022-09-09T08:05:01;17.40;99.90
36670;DHT22;22662;47.412;9.742;2022-09-09T08:07:27;17.40;99.90
36670;DHT22;22662;47.412;9.742;2022-09-09T08:09:53;17.50;99.90
36670;DHT22;22662;47.412;9.742;2022-09-09T08:12:21;17.50;99.90
36670;DHT22;22662;47.412;9.742;2022-09-09T08:14:47;17.50;99.90
36670;DHT22;22662;47.412;9.742;2022-09-09T08:17:13;17.60;99.90
36670;DHT22;22662;47.412;9.742;2022-09-09T08:19:39;17.60;99.90
36670;DHT22;22662;47.412;9.742;2022-09-09T08:22:05;17.60;99.90
36670;DHT22;22662;47.412;9.742;2022-09-09T08:24:31;17.60;99.90
36670;DHT22;22662;47.412;9.742;2022-09-09T08:26:56;17.60;99.90
36670;DHT22;22662;47.412;9.742;2022-09-09T08:29:22;17.50;99.90
36670;DHT22;22662;47.412;9.742;2022-09-09T08:31:48;17.50;99.90
36670;DHT22;22662;47.412;9.742;2022-09-09T08:34:15;17.60;99.90
36670;DHT22;22662;47.412;9.742;2022-09-09T08:36:42;17.60;99.90
36670;DHT22;22662;47.412;9.742;2022-09-09T08:39:08;17.70;99.90
36670;DHT22;22662;47.412;9.742;2022-09-09T08:46:54;17.80;99.90
36670;DHT22;22662;47.412;9.742;2022-09-09T08:51:48;17.90;99.90
36670;DHT22;22662;47.412;9.742;2022-09-09T08:54:15;17.90;99.90
36670;DHT22;22662;47.412;9.742;2022-09-09T08:56:41;17.80;99.90
36670;DHT22;22662;47.412;9.742;2022-09-09T08:59:07;17.70;99.90
36670;DHT22;22662;47.412;9.742;2022-09-09T09:12:18;17.10;99.90
36670;DHT22;22662;47.412;9.742;2022-09-09T09:14:45;17.00;99.90
36670;DHT22;22662;47.412;9.742;2022-09-09T09:17:13;16.80;99.90
36670;DHT22;22662;47.412;9.742;2022-09-09T09:19:40;16.80;99.90
36670;DHT22;22662;47.412;9.742;2022-09-09T09:22:21;16.70;99.90
36670;DHT22;22662;47.412;9.742;2022-09-09T09:27:20;16.50;99.90
36670;DHT22;22662;47.412;9.742;2022-09-09T09:29:47;16.40;99.90
36670;DHT22;22662;47.412;9.742;2022-09-09T09:32:16;16.40;99.90
36670;DHT22;22662;47.412;9.742;2022-09-09T09:34:48;16.30;99.90
36670;DHT22;22662;47.412;9.742;2022-09-09T09:37:25;16.30;99.90
36670;DHT22;22662;47.412;9.742;2022-09-09T09:39:53;16.30;99.90
36670;DHT22;22662;47.412;9.742;2022-09-09T09:42:18;16.30;99.90
36670;DHT22;22662;47.412;9.742;2022-09-09T09:44:44;16.40;99.90
36670;DHT22;22662;47.412;9.742;2022-09-09T09:47:20;16.30;99.90
36670;DHT22;22662;47.412;9.742;2022-09-09T09:49:59;16.20;99.90
36670;DHT22;22662;47.412;9.742;2022-09-09T09:52:25;16.30;99.90
36670;DHT22;22662;47.412;9.742;2022-09-09T09:54:52;16.30;99.90
36670;DHT22;22662;47.412;9.742;2022-09-09T09:57:18;16.30;99.90
36670;DHT22;22662;47.412;9.742;2022-09-09T09:59:49;16.20;99.90
36670;DHT22;22662;47.412;9.742;2022-09-09T10:04:43;16.10;99.90
36670;DHT22;22662;47.412;9.742;2022-09-09T10:07:17;16.20;99.90
36670;DHT22;22662;47.412;9.742;2022-09-09T10:09:43;16.20;99.90
36670;DHT22;22662;47.412;9.742;2022-09-09T10:14:43;16.20;99.90
36670;DHT22;22662;47.412;9.742;2022-09-09T10:17:18;16.40;99.90
36670;DHT22;22662;47.412;9.742;2022-09-09T10:20:21;16.50;99.90
36670;DHT22;22662;47.412;9.742;2022-09-09T10:22:37;16.70;99.90
36670;DHT22;22662;47.412;9.742;2022-09-09T10:30:12;17.70;99.90
36670;DHT22;22662;47.412;9.742;2022-09-09T10:35:12;18.10;99.90
36670;DHT22;22662;47.412;9.742;2022-09-09T10:43:22;18.30;99.90
36670;DHT22;22662;47.412;9.742;2022-09-09T10:50:53;18.30;99.90
36670;DHT22;22662;47.412;9.742;2022-09-09T10:55:53;18.40;99.90
36670;DHT22;22662;47.412;9.742;2022-09-09T10:58:25;18.40;99.90
36670;DHT22;22662;47.412;9.742;2022-09-09T11:00:56;18.20;99.90
36670;DHT22;22662;47.412;9.742;2022-09-09T11:03:25;18.30;99.90
36670;DHT22;22662;47.412;9.742;2022-09-09T11:05:52;18.30;99.90
36670;DHT22;22662;47.412;9.742;2022-09-09T11:08:20;18.40;99.90
36670;DHT22;22662;47.412;9.742;2022-09-09T11:16:01;18.40;99.90
36670;DHT22;22662;47.412;9.742;2022-09-09T11:18:29;18.60;99.90
36670;DHT22;22662;47.412;9.742;2022-09-09T11:20:58;18.40;99.90
36670;DHT22;22662;47.412;9.742;2022-09-09T11:23:27;18.30;99.90
36670;DHT22;22662;47.412;9.742;2022-09-09T11:25:55;18.30;99.90
36670;DHT22;22662;47.412;9.742;2022-09-09T11:28:26;18.20;99.90
36670;DHT22;22662;47.412;9.742;2022-09-09T11:36:25;18.30;99.90
36670;DHT22;22662;47.412;9.742;2022-09-09T11:38:57;18.80;99.90
36670;DHT22;22662;47.412;9.742;2022-09-09T11:41:32;18.90;99.90
36670;DHT22;22662;47.412;9.742;2022-09-09T11:43:58;19.40;99.90
36670;DHT22;22662;47.412;9.742;2022-09-09T11:46:32;19.80;99.90
36670;DHT22;22662;47.412;9.742;2022-09-09T11:49:04;20.20;99.90
36670;DHT22;22662;47.412;9.742;2022-09-09T11:51:31;20.40;99.90
36670;DHT22;22662;47.412;9.742;2022-09-09T11:53:58;20.30;99.90
36670;DHT22;22662;47.412;9.742;2022-09-09T12:01:27;18.90;99.90
36670;DHT22;22662;47.412;9.742;2022-09-09T12:04:28;18.60;99.90
36670;DHT22;22662;47.412;9.742;2022-09-09T12:11:44;18.20;99.90
36670;DHT22;22662;47.412;9.742;2022-09-09T12:14:23;18.30;99.90
36670;DHT22;22662;47.412;9.742;2022-09-09T12:17:17;18.70;99.90
36670;DHT22;22662;47.412;9.742;2022-09-09T12:19:44;18.90;99.90
36670;DHT22;22662;47.412;9.742;2022-09-09T12:24:44;19.90;99.90
36670;DHT22;22662;47.412;9.742;2022-09-09T12:32:27;19.90;99.90
36670;DHT22;22662;47.412;9.742;2022-09-09T12:34:55;19.90;99.90
36670;DHT22;22662;47.412;9.742;2022-09-09T12:40:25;20.40;99.90
36670;DHT22;22662;47.412;9.742;2022-09-09T12:42:51;20.80;99.90
36670;DHT22;22662;47.412;9.742;2022-09-09T12:48:02;21.40;99.90
36670;DHT22;22662;47.412;9.742;2022-09-09T12:50:30;21.40;99.90
36670;DHT22;22662;47.412;9.742;2022-09-09T12:53:00;21.20;99.90
36670;DHT22;22662;47.412;9.742;2022-09-09T12:55:28;21.30;99.90
36670;DHT22;22662;47.412;9.742;2022-09-09T12:57:55;21.10;99.90
36670;DHT22;22662;47.412;9.742;2022-09-09T13:00:22;21.20;99.90
36670;DHT22;22662;47.412;9.742;2022-09-09T13:05:18;21.50;99.90
36670;DHT22;22662;47.412;9.742;2022-09-09T13:07:44;21.00;99.90
36670;DHT22;22662;47.412;9.742;2022-09-09T13:10:13;20.70;99.90
36670;DHT22;22662;47.412;9.742;2022-09-09T13:12:39;20.70;99.90
36670;DHT22;22662;47.412;9.742;2022-09-09T13:15:12;20.60;99.90
36670;DHT22;22662;47.412;9.742;2022-09-09T13:17:39;20.50;99.90
36670;DHT22;22662;47.412;9.742;2022-09-09T13:20:06;20.30;99.90
36670;DHT22;22662;47.412;9.742;2022-09-09T13:22:36;20.30;99.90
36670;DHT22;22662;47.412;9.742;2022-09-09T13:27:30;20.40;99.90
36670;DHT22;22662;47.412;9.742;2022-09-09T13:29:56;20.50;99.90
36670;DHT22;22662;47.412;9.742;2022-09-09T13:32:22;20.80;99.90
36670;DHT22;22662;47.412;9.742;2022-09-09T13:34:58;20.90;99.90
36670;DHT22;22662;47.412;9.742;2022-09-09T13:39:51;21.00;99.90
36670;DHT22;22662;47.412;9.742;2022-09-09T13:42:37;21.00;99.90
36670;DHT22;22662;47.412;9.742;2022-09-09T13:45:04;21.00;99.90
36670;DHT22;22662;47.412;9.742;2022-09-09T13:47:34;21.10;99.90
36670;DHT22;22662;47.412;9.742;2022-09-09T13:50:34;20.90;99.90
36670;DHT22;22662;47.412;9.742;2022-09-09T13:52:56;20.80;99.90
36670;DHT22;22662;47.412;9.742;2022-09-09T13:55:24;20.90;99.90
36670;DHT22;22662;47.412;9.742;2022-09-09T13:58:00;21.00;99.90
36670;DHT22;22662;47.412;9.742;2022-09-09T14:00:29;21.10;99.90
36670;DHT22;22662;47.412;9.742;2022-09-09T14:02:55;21.30;99.90
36670;DHT22;22662;47.412;9.742;2022-09-09T14:05:21;21.50;99.90
36670;DHT22;22662;47.412;9.742;2022-09-09T14:07:47;21.30;99.90
36670;DHT22;22662;47.412;9.742;2022-09-09T14:10:14;21.30;99.90
36670;DHT22;22662;47.412;9.742;2022-09-09T14:12:40;21.30;99.90
36670;DHT22;22662;47.412;9.742;2022-09-09T14:15:06;21.50;99.90
36670;DHT22;22662;47.412;9.742;2022-09-09T14:17:32;21.40;99.90
36670;DHT22;22662;47.412;9.742;2022-09-09T14:19:58;21.30;99.90
36670;DHT22;22662;47.412;9.742;2022-09-09T14:22:24;21.30;99.90
36670;DHT22;22662;47.412;9.742;2022-09-09T14:24:51;21.30;99.90
36670;DHT22;22662;47.412;9.742;2022-09-09T14:27:16;21.20;99.90
36670;DHT22;22662;47.412;9.742;2022-09-09T14:29:44;21.10;99.90
36670;DHT22;22662;47.412;9.742;2022-09-09T14:32:09;21.00;99.90
36670;DHT22;22662;47.412;9.742;2022-09-09T14:34:35;21.10;99.90
36670;DHT22;22662;47.412;9.742;2022-09-09T14:37:01;21.00;99.90
36670;DHT22;22662;47.412;9.742;2022-09-09T14:39:27;21.00;99.90
36670;DHT22;22662;47.412;9.742;2022-09-09T14:41:52;21.10;99.90
36670;DHT22;22662;47.412;9.742;2022-09-09T14:44:18;21.10;99.90
36670;DHT22;22662;47.412;9.742;2022-09-09T14:46:44;21.30;99.90
36670;DHT22;22662;47.412;9.742;2022-09-09T14:49:10;21.20;99.90
36670;DHT22;22662;47.412;9.742;2022-09-09T14:51:36;21.10;99.90
36670;DHT22;22662;47.412;9.742;2022-09-09T14:54:02;21.10;99.90
36670;DHT22;22662;47.412;9.742;2022-09-09T14:56:28;21.30;99.90
36670;DHT22;22662;47.412;9.742;2022-09-09T14:58:55;21.30;99.90
36670;DHT22;22662;47.412;9.742;2022-09-09T15:01:22;21.20;99.90
36670;DHT22;22662;47.412;9.742;2022-09-09T15:03:52;21.40;99.90
36670;DHT22;22662;47.412;9.742;2022-09-09T15:06:18;21.60;99.90
36670;DHT22;22662;47.412;9.742;2022-09-09T15:08:45;21.80;99.90
36670;DHT22;22662;47.412;9.742;2022-09-09T15:11:11;21.90;99.90
36670;DHT22;22662;47.412;9.742;2022-09-09T15:13:38;21.70;99.90
36670;DHT22;22662;47.412;9.742;2022-09-09T15:16:08;21.50;99.90
36670;DHT22;22662;47.412;9.742;2022-09-09T15:18:34;21.70;99.90
36670;DHT22;22662;47.412;9.742;2022-09-09T15:21:04;21.90;99.90
36670;DHT22;22662;47.412;9.742;2022-09-09T15:23:34;21.80;99.90
36670;DHT22;22662;47.412;9.742;2022-09-09T15:25:59;21.60;99.90
36670;DHT22;22662;47.412;9.742;2022-09-09T15:28:25;21.30;99.90
36670;DHT22;22662;47.412;9.742;2022-09-09T15:30:51;21.20;99.90
36670;DHT22;22662;47.412;9.742;2022-09-09T15:33:21;21.10;99.90
36670;DHT22;22662;47.412;9.742;2022-09-09T15:35:46;21.10;99.90
36670;DHT22;22662;47.412;9.742;2022-09-09T15:38:12;20.80;99.90
36670;DHT22;22662;47.412;9.742;2022-09-09T15:40:41;20.70;99.90
36670;DHT22;22662;47.412;9.742;2022-09-09T15:43:07;20.80;99.90
36670;DHT22;22662;47.412;9.742;2022-09-09T15:45:35;21.00;99.90
36670;DHT22;22662;47.412;9.742;2022-09-09T15:48:01;21.30;99.90
36670;DHT22;22662;47.412;9.742;2022-09-09T15:50:26;21.50;99.90
36670;DHT22;22662;47.412;9.742;2022-09-09T15:52:52;21.60;99.90
36670;DHT22;22662;47.412;9.742;2022-09-09T15:55:18;21.50;99.90
36670;DHT22;22662;47.412;9.742;2022-09-09T15:57:45;21.50;99.90
36670;DHT22;22662;47.412;9.742;2022-09-09T16:00:11;21.40;99.90
36670;DHT22;22662;47.412;9.742;2022-09-09T16:02:38;21.10;99.90
36670;DHT22;22662;47.412;9.742;2022-09-09T16:05:04;20.70;99.90
36670;DHT22;22662;47.412;9.742;2022-09-09T16:07:30;20.50;99.90
36670;DHT22;22662;47.412;9.742;2022-09-09T16:09:56;20.60;99.90
36670;DHT22;22662;47.412;9.742;2022-09-09T16:12:21;21.00;99.90
36670;DHT22;22662;47.412;9.742;2022-09-09T16:14:47;21.30;99.90
36670;DHT22;22662;47.412;9.742;2022-09-09T16:17:13;21.60;99.90
36670;DHT22;22662;47.412;9.742;2022-09-09T16:19:39;21.70;99.90
36670;DHT22;22662;47.412;9.742;2022-09-09T16:22:05;21.70;99.90
36670;DHT22;22662;47.412;9.742;2022-09-09T16:24:31;21.70;99.90
36670;DHT22;22662;47.412;9.742;2022-09-09T16:26:58;21.60;99.90
36670;DHT22;22662;47.412;9.742;2022-09-09T16:29:24;21.40;99.90
36670;DHT22;22662;47.412;9.742;2022-09-09T16:31:52;21.20;99.90
36670;DHT22;22662;47.412;9.742;2022-09-09T16:34:19;21.00;99.90
36670;DHT22;22662;47.412;9.742;2022-09-09T16:36:45;20.80;99.90
36670;DHT22;22662;47.412;9.742;2022-09-09T16:39:13;20.50;99.90
36670;DHT22;22662;47.412;9.742;2022-09-09T16:41:39;20.30;99.90
36670;DHT22;22662;47.412;9.742;2022-09-09T16:44:06;20.20;99.90
36670;DHT22;22662;47.412;9.742;2022-09-09T16:46:34;20.00;99.90
36670;DHT22;22662;47.412;9.742;2022-09-09T16:49:00;19.70;99.90
36670;DHT22;22662;47.412;9.742;2022-09-09T16:51:27;19.60;99.90
36670;DHT22;22662;47.412;9.742;2022-09-09T16:53:54;19.50;99.90
36670;DHT22;22662;47.412;9.742;2022-09-09T16:56:21;19.50;99.90
36670;DHT22;22662;47.412;9.742;2022-09-09T16:58:51;19.50;99.90
36670;DHT22;22662;47.412;9.742;2022-09-09T17:01:17;19.40;99.90
36670;DHT22;22662;47.412;9.742;2022-09-09T17:03:43;19.40;99.90
36670;DHT22;22662;47.412;9.742;2022-09-09T17:06:09;19.30;99.90
36670;DHT22;22662;47.412;9.742;2022-09-09T17:08:35;19.20;99.90
36670;DHT22;22662;47.412;9.742;2022-09-09T17:11:01;19.10;99.90
36670;DHT22;22662;47.412;9.742;2022-09-09T17:13:27;18.90;99.90
36670;DHT22;22662;47.412;9.742;2022-09-09T17:15:52;18.80;99.90
36670;DHT22;22662;47.412;9.742;2022-09-09T17:18:18;18.80;99.90
36670;DHT22;22662;47.412;9.742;2022-09-09T17:20:43;18.70;99.90
36670;DHT22;22662;47.412;9.742;2022-09-09T17:23:10;18.70;99.90
36670;DHT22;22662;47.412;9.742;2022-09-09T17:25:36;18.70;99.90
36670;DHT22;22662;47.412;9.742;2022-09-09T17:28:02;18.70;99.90
36670;DHT22;22662;47.412;9.742;2022-09-09T17:30:30;18.70;99.90
36670;DHT22;22662;47.412;9.742;2022-09-09T17:32:56;18.60;99.90
36670;DHT22;22662;47.412;9.742;2022-09-09T17:35:22;18.40;99.90
36670;DHT22;22662;47.412;9.742;2022-09-09T17:37:48;18.30;99.90